sensor_id;sensor_type;location;lat;lon;timestamp;temperature;humidity
4518;DHT22;2271;49.464;11.070;2023-04-06T00:01:48;5.20;99.90
4518;DHT22;2271;49.464;11.070;2023-04-06T00:04:14;5.20;99.90
4518;DHT22;2271;49.464;11.070;2023-04-06T00:06:40;5.10;99.90
4518;DHT22;2271;49.464;11.070;2023-04-06T00:09:05;5.10;99.90
4518;DHT22;2271;49.464;11.070;2023-04-06T00:11:31;5.20;99.90
4518;DHT22;2271;49.464;11.070;2023-04-06T00:13:57;5.20;99.90
4518;DHT22;2271;49.464;11.070;2023-04-06T00:16:22;5.20;99.90
4518;DHT22;2271;49.464;11.070;2023-04-06T00:18:48;5.10;99.90
4518;DHT22;2271;49.464;11.070;2023-04-06T00:21:14;5.10;99.90
4518;DHT22;2271;49.464;11.070;2023-04-06T00:23:41;5.10;99.90
4518;DHT22;2271;49.464;11.070;2023-04-06T00:26:07;5.00;99.90
4518;DHT22;2271;49.464;11.070;2023-04-06T00:28:33;4.90;99.90
4518;DHT22;2271;49.464;11.070;2023-04-06T00:30:58;4.80;99.90
4518;DHT22;2271;49.464;11.070;2023-04-06T00:33:24;4.80;99.90
4518;DHT22;2271;49.464;11.070;2023-04-06T00:35:50;4.90;99.90
4518;DHT22;2271;49.464;11.070;2023-04-06T00:38:16;4.90;99.90
4518;DHT22;2271;49.464;11.070;2023-04-06T00:40:43;5.00;99.90
4518;DHT22;2271;49.464;11.070;2023-04-06T00:43:12;5.10;99.90
4518;DHT22;2271;49.464;11.070;2023-04-06T00:45:41;5.00;99.90
4518;DHT22;2271;49.464;11.070;2023-04-06T00:48:07;5.00;99.90
4518;DHT22;2271;49.464;11.070;2023-04-06T00:50:33;5.00;99.90
4518;DHT22;2271;49.464;11.070;2023-04-06T00:52:59;5.00;99.90
4518;DHT22;2271;49.464;11.070;2023-04-06T00:55:28;5.00;99.90
4518;DHT22;2271;49.464;11.070;2023-04-06T00:57:56;5.00;99.90
4518;DHT22;2271;49.464;11.070;2023-04-06T01:00:22;5.00;99.90
4518;DHT22;2271;49.464;11.070;2023-04-06T01:02:48;5.00;99.90
4518;DHT22;2271;49.464;11.070;2023-04-06T01:05:14;5.00;99.90
4518;DHT22;2271;49.464;11.070;2023-04-06T01:07:40;4.90;99.90
4518;DHT22;2271;49.464;11.070;2023-04-06T01:10:06;4.90;99.90
4518;DHT22;2271;49.464;11.070;2023-04-06T01:12:32;4.90;99.90
4518;DHT22;2271;49.464;11.070;2023-04-06T01:14:58;4.90;99.90
4518;DHT22;2271;49.464;11.070;2023-04-06T01:17:23;5.00;99.90
4518;DHT22;2271;49.464;11.070;2023-04-06T01:19:49;5.00;99.90
4518;DHT22;2271;49.464;11.070;2023-04-06T01:22:16;4.90;99.90
4518;DHT22;2271;49.464;11.070;2023-04-06T01:24:42;4.90;99.90
4518;DHT22;2271;49.464;11.070;2023-04-06T01:27:08;4.70;99.90
4518;DHT22;2271;49.464;11.070;2023-04-06T01:29:34;4.60;99.90
4518;DHT22;2271;49.464;11.070;2023-04-06T01:31:59;4.70;99.90
4518;DHT22;2271;49.464;11.070;2023-04-06T01:34:25;4.60;99.90
4518;DHT22;2271;49.464;11.070;2023-04-06T01:36:51;4.60;99.90
4518;DHT22;2271;49.464;11.070;2023-04-06T01:39:17;4.60;99.90
4518;DHT22;2271;49.464;11.070;2023-04-06T01:41:42;4.60;99.90
4518;DHT22;2271;49.464;11.070;2023-04-06T01:44:08;4.60;99.90
4518;DHT22;2271;49.464;11.070;2023-04-06T01:46:34;4.60;99.90
4518;DHT22;2271;49.464;11.070;2023-04-06T01:48:59;4.60;99.90
4518;DHT22;2271;49.464;11.070;2023-04-06T01:51:25;4.60;99.90
4518;DHT22;2271;49.464;11.070;2023-04-06T01:53:52;4.60;99.90
4518;DHT22;2271;49.464;11.070;2023-04-06T01:56:18;4.50;99.90
4518;DHT22;2271;49.464;11.070;2023-04-06T01:58:43;4.40;99.90
4518;DHT22;2271;49.464;11.070;2023-04-06T02:01:09;4.30;99.90
4518;DHT22;2271;49.464;11.070;2023-04-06T02:03:34;4.30;99.90
4518;DHT22;2271;49.464;11.070;2023-04-06T02:06:00;4.10;99.90
4518;DHT22;2271;49.464;11.070;2023-04-06T02:08:26;4.10;99.90
4518;DHT22;2271;49.464;11.070;2023-04-06T02:10:51;4.10;99.90
4518;DHT22;2271;49.464;11.070;2023-04-06T02:13:17;4.00;99.90
4518;DHT22;2271;49.464;11.070;2023-04-06T02:15:43;3.90;99.90
4518;DHT22;2271;49.464;11.070;2023-04-06T02:18:09;3.90;99.90
4518;DHT22;2271;49.464;11.070;2023-04-06T02:20:35;4.10;99.90
4518;DHT22;2271;49.464;11.070;2023-04-06T02:23:01;4.00;99.90
4518;DHT22;2271;49.464;11.070;2023-04-06T02:25:26;3.90;99.90
4518;DHT22;2271;49.464;11.070;2023-04-06T02:27:52;3.80;99.90
4518;DHT22;2271;49.464;11.070;2023-04-06T02:30:17;3.80;99.90
4518;DHT22;2271;49.464;11.070;2023-04-06T02:32:43;3.70;99.90
4518;DHT22;2271;49.464;11.070;2023-04-06T02:35:09;3.70;99.90
4518;DHT22;2271;49.464;11.070;2023-04-06T02:37:34;3.70;99.90
4518;DHT22;2271;49.464;11.070;2023-04-06T02:40:00;3.70;99.90
4518;DHT22;2271;49.464;11.070;2023-04-06T02:42:26;3.70;99.90
4518;DHT22;2271;49.464;11.070;2023-04-06T02:44:51;3.70;99.90
4518;DHT22;2271;49.464;11.070;2023-04-06T02:47:17;3.60;99.90
4518;DHT22;2271;49.464;11.070;2023-04-06T02:49:42;3.50;99.90
4518;DHT22;2271;49.464;11.070;2023-04-06T02:52:08;3.60;99.90
4518;DHT22;2271;49.464;11.070;2023-04-06T02:54:34;3.60;99.90
4518;DHT22;2271;49.464;11.070;2023-04-06T02:56:59;3.70;99.90
4518;DHT22;2271;49.464;11.070;2023-04-06T02:59:25;3.80;99.90
4518;DHT22;2271;49.464;11.070;2023-04-06T03:01:51;3.70;99.90
4518;DHT22;2271;49.464;11.070;2023-04-06T03:04:17;3.70;99.90
4518;DHT22;2271;49.464;11.070;2023-04-06T03:06:42;3.70;99.90
4518;DHT22;2271;49.464;11.070;2023-04-06T03:09:08;3.80;99.90
4518;DHT22;2271;49.464;11.070;2023-04-06T03:11:34;3.80;99.90
4518;DHT22;2271;49.464;11.070;2023-04-06T03:13:59;3.90;99.90
4518;DHT22;2271;49.464;11.070;2023-04-06T03:16:25;3.90;99.90
4518;DHT22;2271;49.464;11.070;2023-04-06T03:18:51;4.00;99.90
4518;DHT22;2271;49.464;11.070;2023-04-06T03:21:16;3.90;99.90
4518;DHT22;2271;49.464;11.070;2023-04-06T03:23:42;3.80;99.90
4518;DHT22;2271;49.464;11.070;2023-04-06T03:26:08;3.80;99.90
4518;DHT22;2271;49.464;11.070;2023-04-06T03:28:34;3.90;99.90
4518;DHT22;2271;49.464;11.070;2023-04-06T03:31:00;3.80;99.90
4518;DHT22;2271;49.464;11.070;2023-04-06T03:33:25;3.70;99.90
4518;DHT22;2271;49.464;11.070;2023-04-06T03:35:54;3.50;99.90
4518;DHT22;2271;49.464;11.070;2023-04-06T03:38:20;3.50;99.90
4518;DHT22;2271;49.464;11.070;2023-04-06T03:40:46;3.60;99.90
4518;DHT22;2271;49.464;11.070;2023-04-06T03:43:11;3.60;99.90
4518;DHT22;2271;49.464;11.070;2023-04-06T03:45:37;3.60;99.90
4518;DHT22;2271;49.464;11.070;2023-04-06T03:48:03;3.40;99.90
4518;DHT22;2271;49.464;11.070;2023-04-06T03:50:29;3.40;99.90
4518;DHT22;2271;49.464;11.070;2023-04-06T03:52:54;3.30;99.90
4518;DHT22;2271;49.464;11.070;2023-04-06T03:55:20;3.30;99.90
4518;DHT22;2271;49.464;11.070;2023-04-06T03:57:46;3.30;99.90
4518;DHT22;2271;49.464;11.070;2023-04-06T04:00:12;3.30;99.90
4518;DHT22;2271;49.464;11.070;2023-04-06T04:02:38;3.20;99.90
4518;DHT22;2271;49.464;11.070;2023-04-06T04:05:04;3.30;99.90
4518;DHT22;2271;49.464;11.070;2023-04-06T04:07:30;3.30;99.90
4518;DHT22;2271;49.464;11.070;2023-04-06T04:09:56;3.30;99.90
4518;DHT22;2271;49.464;11.070;2023-04-06T04:12:21;3.30;99.90
4518;DHT22;2271;49.464;11.070;2023-04-06T04:14:47;3.30;99.90
4518;DHT22;2271;49.464;11.070;2023-04-06T04:17:13;3.30;99.90
4518;DHT22;2271;49.464;11.070;2023-04-06T04:19:38;3.20;99.90
4518;DHT22;2271;49.464;11.070;2023-04-06T04:22:04;3.30;99.90
4518;DHT22;2271;49.464;11.070;2023-04-06T04:24:30;3.40;99.90
4518;DHT22;2271;49.464;11.070;2023-04-06T04:26:56;3.50;99.90
4518;DHT22;2271;49.464;11.070;2023-04-06T04:29:22;3.50;99.90
4518;DHT22;2271;49.464;11.070;2023-04-06T04:31:48;3.60;99.90
4518;DHT22;2271;49.464;11.070;2023-04-06T04:34:15;3.40;99.90
4518;DHT22;2271;49.464;11.070;2023-04-06T04:36:41;3.40;99.90
4518;DHT22;2271;49.464;11.070;2023-04-06T04:39:08;3.40;99.90
4518;DHT22;2271;49.464;11.070;2023-04-06T04:41:33;3.40;99.90
4518;DHT22;2271;49.464;11.070;2023-04-06T04:43:59;3.40;99.90
4518;DHT22;2271;49.464;11.070;2023-04-06T04:46:25;3.50;99.90
4518;DHT22;2271;49.464;11.070;2023-04-06T04:48:50;3.50;99.90
4518;DHT22;2271;49.464;11.070;2023-04-06T04:51:16;3.50;99.90
4518;DHT22;2271;49.464;11.070;2023-04-06T04:53:42;3.30;99.90
4518;DHT22;2271;49.464;11.070;2023-04-06T04:56:07;3.30;99.90
4518;DHT22;2271;49.464;11.070;2023-04-06T04:58:33;3.30;99.90
4518;DHT22;2271;49.464;11.070;2023-04-06T05:00:58;3.40;99.90
4518;DHT22;2271;49.464;11.070;2023-04-06T05:03:25;3.30;99.90
4518;DHT22;2271;49.464;11.070;2023-04-06T05:05:52;3.40;99.90
4518;DHT22;2271;49.464;11.070;2023-04-06T05:08:17;3.40;99.90
4518;DHT22;2271;49.464;11.070;2023-04-06T05:10:43;3.40;99.90
4518;DHT22;2271;49.464;11.070;2023-04-06T05:13:10;3.30;99.90
4518;DHT22;2271;49.464;11.070;2023-04-06T05:15:36;3.20;99.90
4518;DHT22;2271;49.464;11.070;2023-04-06T05:18:04;3.30;99.90
4518;DHT22;2271;49.464;11.070;2023-04-06T05:20:30;3.20;99.90
4518;DHT22;2271;49.464;11.070;2023-04-06T05:22:56;3.20;99.90
4518;DHT22;2271;49.464;11.070;2023-04-06T05:25:21;3.20;99.90
4518;DHT22;2271;49.464;11.070;2023-04-06T05:27:47;3.20;99.90
4518;DHT22;2271;49.464;11.070;2023-04-06T05:30:13;3.30;99.90
4518;DHT22;2271;49.464;11.070;2023-04-06T05:32:39;3.60;99.90
4518;DHT22;2271;49.464;11.070;2023-04-06T05:35:05;4.30;99.90
4518;DHT22;2271;49.464;11.070;2023-04-06T05:37:31;4.90;99.90
4518;DHT22;2271;49.464;11.070;2023-04-06T05:39:56;5.60;99.90
4518;DHT22;2271;49.464;11.070;2023-04-06T05:42:22;6.10;99.90
4518;DHT22;2271;49.464;11.070;2023-04-06T05:44:48;6.80;99.90
4518;DHT22;2271;49.464;11.070;2023-04-06T05:47:14;7.20;99.90
4518;DHT22;2271;49.464;11.070;2023-04-06T05:49:42;7.70;99.90
4518;DHT22;2271;49.464;11.070;2023-04-06T05:52:08;8.00;99.90
4518;DHT22;2271;49.464;11.070;2023-04-06T05:54:38;8.20;99.90
4518;DHT22;2271;49.464;11.070;2023-04-06T05:57:04;8.60;99.90
4518;DHT22;2271;49.464;11.070;2023-04-06T05:59:32;9.00;99.90
4518;DHT22;2271;49.464;11.070;2023-04-06T06:01:58;9.50;99.90
4518;DHT22;2271;49.464;11.070;2023-04-06T06:04:23;10.20;99.90
4518;DHT22;2271;49.464;11.070;2023-04-06T06:06:49;10.20;99.90
4518;DHT22;2271;49.464;11.070;2023-04-06T06:09:15;10.20;99.60
4518;DHT22;2271;49.464;11.070;2023-04-06T06:11:41;10.60;98.90
4518;DHT22;2271;49.464;11.070;2023-04-06T06:14:07;11.60;96.90
4518;DHT22;2271;49.464;11.070;2023-04-06T06:16:33;11.90;95.00
4518;DHT22;2271;49.464;11.070;2023-04-06T06:18:59;12.40;93.50
4518;DHT22;2271;49.464;11.070;2023-04-06T06:21:24;13.00;92.20
4518;DHT22;2271;49.464;11.070;2023-04-06T06:23:51;13.60;90.80
4518;DHT22;2271;49.464;11.070;2023-04-06T06:26:16;14.10;89.50
4518;DHT22;2271;49.464;11.070;2023-04-06T06:28:42;14.50;87.20
4518;DHT22;2271;49.464;11.070;2023-04-06T06:31:08;14.70;85.10
4518;DHT22;2271;49.464;11.070;2023-04-06T06:33:34;14.40;85.60
4518;DHT22;2271;49.464;11.070;2023-04-06T06:35:59;14.70;85.20
4518;DHT22;2271;49.464;11.070;2023-04-06T06:38:25;14.10;85.50
4518;DHT22;2271;49.464;11.070;2023-04-06T06:40:52;14.30;86.10
4518;DHT22;2271;49.464;11.070;2023-04-06T06:43:17;14.00;86.00
4518;DHT22;2271;49.464;11.070;2023-04-06T06:45:43;14.30;86.50
4518;DHT22;2271;49.464;11.070;2023-04-06T06:48:09;13.90;86.70
4518;DHT22;2271;49.464;11.070;2023-04-06T06:50:36;12.90;88.00
4518;DHT22;2271;49.464;11.070;2023-04-06T06:53:01;11.90;90.40
4518;DHT22;2271;49.464;11.070;2023-04-06T06:55:27;11.70;90.90
4518;DHT22;2271;49.464;11.070;2023-04-06T06:57:53;11.20;91.50
4518;DHT22;2271;49.464;11.070;2023-04-06T07:00:19;10.70;92.30
4518;DHT22;2271;49.464;11.070;2023-04-06T07:02:47;10.40;93.10
4518;DHT22;2271;49.464;11.070;2023-04-06T07:05:13;10.20;94.20
4518;DHT22;2271;49.464;11.070;2023-04-06T07:07:38;10.00;94.40
4518;DHT22;2271;49.464;11.070;2023-04-06T07:10:04;10.10;94.90
4518;DHT22;2271;49.464;11.070;2023-04-06T07:12:30;10.10;95.00
4518;DHT22;2271;49.464;11.070;2023-04-06T07:14:56;10.40;94.80
4518;DHT22;2271;49.464;11.070;2023-04-06T07:17:22;10.50;95.00
4518;DHT22;2271;49.464;11.070;2023-04-06T07:19:47;10.20;95.10
4518;DHT22;2271;49.464;11.070;2023-04-06T07:22:13;9.60;95.30
4518;DHT22;2271;49.464;11.070;2023-04-06T07:24:39;10.00;95.80
4518;DHT22;2271;49.464;11.070;2023-04-06T07:27:04;10.50;95.60
4518;DHT22;2271;49.464;11.070;2023-04-06T07:29:30;10.60;95.30
4518;DHT22;2271;49.464;11.070;2023-04-06T07:31:56;10.30;95.50
4518;DHT22;2271;49.464;11.070;2023-04-06T07:34:22;10.40;95.60
4518;DHT22;2271;49.464;11.070;2023-04-06T07:36:48;10.50;95.70
4518;DHT22;2271;49.464;11.070;2023-04-06T07:39:14;10.30;95.50
4518;DHT22;2271;49.464;11.070;2023-04-06T07:41:40;10.50;95.40
4518;DHT22;2271;49.464;11.070;2023-04-06T07:44:05;10.50;95.10
4518;DHT22;2271;49.464;11.070;2023-04-06T07:46:31;10.30;95.00
4518;DHT22;2271;49.464;11.070;2023-04-06T07:48:58;10.50;95.70
4518;DHT22;2271;49.464;11.070;2023-04-06T07:51:24;10.70;95.50
4518;DHT22;2271;49.464;11.070;2023-04-06T07:53:51;10.60;95.10
4518;DHT22;2271;49.464;11.070;2023-04-06T07:56:16;10.80;95.40
4518;DHT22;2271;49.464;11.070;2023-04-06T07:58:42;11.30;94.70
4518;DHT22;2271;49.464;11.070;2023-04-06T08:01:08;11.50;93.60
4518;DHT22;2271;49.464;11.070;2023-04-06T08:03:35;11.20;93.50
4518;DHT22;2271;49.464;11.070;2023-04-06T08:06:01;11.10;93.10
4518;DHT22;2271;49.464;11.070;2023-04-06T08:08:27;11.30;92.90
4518;DHT22;2271;49.464;11.070;2023-04-06T08:10:53;11.60;92.40
4518;DHT22;2271;49.464;11.070;2023-04-06T08:13:19;11.80;92.20
4518;DHT22;2271;49.464;11.070;2023-04-06T08:15:45;12.00;91.50
4518;DHT22;2271;49.464;11.070;2023-04-06T08:18:10;12.00;91.50
4518;DHT22;2271;49.464;11.070;2023-04-06T08:20:36;11.80;92.00
4518;DHT22;2271;49.464;11.070;2023-04-06T08:23:02;11.80;91.40
4518;DHT22;2271;49.464;11.070;2023-04-06T08:25:28;11.60;91.60
4518;DHT22;2271;49.464;11.070;2023-04-06T08:27:53;11.90;92.30
4518;DHT22;2271;49.464;11.070;2023-04-06T08:30:19;11.90;91.40
4518;DHT22;2271;49.464;11.070;2023-04-06T08:32:45;12.30;91.30
4518;DHT22;2271;49.464;11.070;2023-04-06T08:35:11;12.40;91.40
4518;DHT22;2271;49.464;11.070;2023-04-06T08:37:37;12.70;90.80
4518;DHT22;2271;49.464;11.070;2023-04-06T08:40:04;13.00;90.40
4518;DHT22;2271;49.464;11.070;2023-04-06T08:42:32;13.10;89.70
4518;DHT22;2271;49.464;11.070;2023-04-06T08:44:59;13.20;89.70
4518;DHT22;2271;49.464;11.070;2023-04-06T08:47:25;13.20;89.50
4518;DHT22;2271;49.464;11.070;2023-04-06T08:49:52;13.10;88.70
4518;DHT22;2271;49.464;11.070;2023-04-06T08:52:18;13.00;89.70
4518;DHT22;2271;49.464;11.070;2023-04-06T08:54:44;13.20;89.30
4518;DHT22;2271;49.464;11.070;2023-04-06T08:57:10;13.40;87.00
4518;DHT22;2271;49.464;11.070;2023-04-06T08:59:36;13.50;86.20
4518;DHT22;2271;49.464;11.070;2023-04-06T09:02:04;13.40;85.50
4518;DHT22;2271;49.464;11.070;2023-04-06T09:04:34;12.70;86.00
4518;DHT22;2271;49.464;11.070;2023-04-06T09:07:01;12.50;87.80
4518;DHT22;2271;49.464;11.070;2023-04-06T09:09:26;12.50;89.70
4518;DHT22;2271;49.464;11.070;2023-04-06T09:11:52;12.80;87.60
4518;DHT22;2271;49.464;11.070;2023-04-06T09:14:37;13.10;86.60
4518;DHT22;2271;49.464;11.070;2023-04-06T09:17:03;13.20;86.20
4518;DHT22;2271;49.464;11.070;2023-04-06T09:19:29;12.90;85.90
4518;DHT22;2271;49.464;11.070;2023-04-06T09:22:03;13.00;87.40
4518;DHT22;2271;49.464;11.070;2023-04-06T09:24:39;13.10;85.50
4518;DHT22;2271;49.464;11.070;2023-04-06T09:27:05;13.10;84.80
4518;DHT22;2271;49.464;11.070;2023-04-06T09:29:31;13.40;84.60
4518;DHT22;2271;49.464;11.070;2023-04-06T09:32:08;13.60;83.60
4518;DHT22;2271;49.464;11.070;2023-04-06T09:34:40;13.40;84.00
4518;DHT22;2271;49.464;11.070;2023-04-06T09:37:16;13.50;84.40
4518;DHT22;2271;49.464;11.070;2023-04-06T09:39:43;13.20;82.00
4518;DHT22;2271;49.464;11.070;2023-04-06T09:42:09;13.20;82.70
4518;DHT22;2271;49.464;11.070;2023-04-06T09:44:35;13.60;81.80
4518;DHT22;2271;49.464;11.070;2023-04-06T09:47:00;13.80;80.80
4518;DHT22;2271;49.464;11.070;2023-04-06T09:49:30;14.10;80.00
4518;DHT22;2271;49.464;11.070;2023-04-06T09:52:02;14.30;79.50
4518;DHT22;2271;49.464;11.070;2023-04-06T09:54:31;14.30;78.40
4518;DHT22;2271;49.464;11.070;2023-04-06T09:59:50;13.70;79.90
4518;DHT22;2271;49.464;11.070;2023-04-06T10:02:39;13.70;80.70
4518;DHT22;2271;49.464;11.070;2023-04-06T10:05:12;13.70;81.40
4518;DHT22;2271;49.464;11.070;2023-04-06T10:07:40;13.80;80.90
4518;DHT22;2271;49.464;11.070;2023-04-06T10:10:07;14.00;81.30
4518;DHT22;2271;49.464;11.070;2023-04-06T10:12:33;14.20;80.60
4518;DHT22;2271;49.464;11.070;2023-04-06T10:14:59;14.30;80.10
4518;DHT22;2271;49.464;11.070;2023-04-06T10:17:25;14.20;81.10
4518;DHT22;2271;49.464;11.070;2023-04-06T10:20:56;14.00;80.20
4518;DHT22;2271;49.464;11.070;2023-04-06T10:24:02;13.80;79.60
4518;DHT22;2271;49.464;11.070;2023-04-06T10:26:13;13.70;79.40
4518;DHT22;2271;49.464;11.070;2023-04-06T10:28:42;13.80;81.20
4518;DHT22;2271;49.464;11.070;2023-04-06T10:31:08;14.00;81.20
4518;DHT22;2271;49.464;11.070;2023-04-06T10:33:34;14.40;79.80
4518;DHT22;2271;49.464;11.070;2023-04-06T10:36:13;14.60;79.40
4518;DHT22;2271;49.464;11.070;2023-04-06T10:38:40;14.80;78.60
4518;DHT22;2271;49.464;11.070;2023-04-06T10:41:08;14.90;77.90
4518;DHT22;2271;49.464;11.070;2023-04-06T10:43:35;15.10;77.60
4518;DHT22;2271;49.464;11.070;2023-04-06T10:46:02;15.00;76.60
4518;DHT22;2271;49.464;11.070;2023-04-06T10:53:36;14.80;77.70
4518;DHT22;2271;49.464;11.070;2023-04-06T10:56:02;14.80;77.70
4518;DHT22;2271;49.464;11.070;2023-04-06T10:58:29;15.00;77.50
4518;DHT22;2271;49.464;11.070;2023-04-06T11:00:56;15.10;76.90
4518;DHT22;2271;49.464;11.070;2023-04-06T11:03:22;15.00;75.30
4518;DHT22;2271;49.464;11.070;2023-04-06T11:05:49;14.40;75.20
4518;DHT22;2271;49.464;11.070;2023-04-06T11:08:35;14.40;77.40
4518;DHT22;2271;49.464;11.070;2023-04-06T11:11:11;14.20;76.00
4518;DHT22;2271;49.464;11.070;2023-04-06T11:13:49;14.00;76.10
4518;DHT22;2271;49.464;11.070;2023-04-06T11:16:20;14.10;78.00
4518;DHT22;2271;49.464;11.070;2023-04-06T11:21:41;14.50;77.50
4518;DHT22;2271;49.464;11.070;2023-04-06T11:26:48;15.00;76.20
4518;DHT22;2271;49.464;11.070;2023-04-06T11:29:21;15.10;75.30
4518;DHT22;2271;49.464;11.070;2023-04-06T11:31:49;15.20;75.70
4518;DHT22;2271;49.464;11.070;2023-04-06T11:34:19;15.20;74.50
4518;DHT22;2271;49.464;11.070;2023-04-06T11:36:47;15.20;75.60
4518;DHT22;2271;49.464;11.070;2023-04-06T11:39:17;15.30;74.10
4518;DHT22;2271;49.464;11.070;2023-04-06T11:41:50;15.30;74.00
4518;DHT22;2271;49.464;11.070;2023-04-06T11:44:37;15.20;72.80
4518;DHT22;2271;49.464;11.070;2023-04-06T11:47:09;15.20;73.80
4518;DHT22;2271;49.464;11.070;2023-04-06T11:49:39;15.30;72.10
4518;DHT22;2271;49.464;11.070;2023-04-06T11:54:48;15.10;72.60
4518;DHT22;2271;49.464;11.070;2023-04-06T11:57:16;15.10;72.10
4518;DHT22;2271;49.464;11.070;2023-04-06T11:59:42;15.00;73.10
4518;DHT22;2271;49.464;11.070;2023-04-06T12:02:08;15.10;73.20
4518;DHT22;2271;49.464;11.070;2023-04-06T12:04:34;15.30;72.10
4518;DHT22;2271;49.464;11.070;2023-04-06T12:07:00;15.40;71.40
4518;DHT22;2271;49.464;11.070;2023-04-06T12:09:26;15.20;70.90
4518;DHT22;2271;49.464;11.070;2023-04-06T12:11:52;15.20;72.30
4518;DHT22;2271;49.464;11.070;2023-04-06T12:14:17;15.10;72.70
4518;DHT22;2271;49.464;11.070;2023-04-06T12:16:43;15.20;71.80
4518;DHT22;2271;49.464;11.070;2023-04-06T12:19:09;15.20;71.90
4518;DHT22;2271;49.464;11.070;2023-04-06T12:21:35;15.30;71.70
4518;DHT22;2271;49.464;11.070;2023-04-06T12:24:03;15.20;71.10
4518;DHT22;2271;49.464;11.070;2023-04-06T12:26:30;15.20;73.00
4518;DHT22;2271;49.464;11.070;2023-04-06T12:28:56;15.40;71.50
4518;DHT22;2271;49.464;11.070;2023-04-06T12:31:23;15.30;70.20
4518;DHT22;2271;49.464;11.070;2023-04-06T12:33:51;15.10;70.30
4518;DHT22;2271;49.464;11.070;2023-04-06T12:36:19;15.20;71.90
4518;DHT22;2271;49.464;11.070;2023-04-06T12:38:48;15.30;71.10
4518;DHT22;2271;49.464;11.070;2023-04-06T12:41:14;15.40;70.80
4518;DHT22;2271;49.464;11.070;2023-04-06T12:43:41;15.50;70.60
4518;DHT22;2271;49.464;11.070;2023-04-06T12:46:07;15.50;71.10
4518;DHT22;2271;49.464;11.070;2023-04-06T12:48:33;15.40;71.10
4518;DHT22;2271;49.464;11.070;2023-04-06T12:51:00;15.40;70.20
4518;DHT22;2271;49.464;11.070;2023-04-06T12:53:26;15.30;71.00
4518;DHT22;2271;49.464;11.070;2023-04-06T12:55:53;15.40;72.10
4518;DHT22;2271;49.464;11.070;2023-04-06T12:58:19;15.50;69.90
4518;DHT22;2271;49.464;11.070;2023-04-06T13:00:46;15.50;69.50
4518;DHT22;2271;49.464;11.070;2023-04-06T13:03:12;15.50;70.40
4518;DHT22;2271;49.464;11.070;2023-04-06T13:05:44;15.40;68.90
4518;DHT22;2271;49.464;11.070;2023-04-06T13:08:10;15.40;69.70
4518;DHT22;2271;49.464;11.070;2023-04-06T13:10:36;15.40;69.60
4518;DHT22;2271;49.464;11.070;2023-04-06T13:13:02;15.30;70.80
4518;DHT22;2271;49.464;11.070;2023-04-06T13:15:28;15.40;70.00
4518;DHT22;2271;49.464;11.070;2023-04-06T13:17:54;15.50;68.70
4518;DHT22;2271;49.464;11.070;2023-04-06T13:20:19;15.50;70.00
4518;DHT22;2271;49.464;11.070;2023-04-06T13:22:45;15.50;69.00
4518;DHT22;2271;49.464;11.070;2023-04-06T13:25:11;15.60;79.80
4518;DHT22;2271;49.464;11.070;2023-04-06T13:27:36;15.70;76.20
4518;DHT22;2271;49.464;11.070;2023-04-06T13:30:03;15.40;72.20
4518;DHT22;2271;49.464;11.070;2023-04-06T13:32:29;15.30;71.00
4518;DHT22;2271;49.464;11.070;2023-04-06T13:34:55;15.10;69.50
4518;DHT22;2271;49.464;11.070;2023-04-06T13:37:21;14.80;73.30
4518;DHT22;2271;49.464;11.070;2023-04-06T13:39:47;14.80;77.80
4518;DHT22;2271;49.464;11.070;2023-04-06T13:42:12;15.00;76.60
4518;DHT22;2271;49.464;11.070;2023-04-06T13:44:38;15.20;77.00
4518;DHT22;2271;49.464;11.070;2023-04-06T13:47:04;15.40;73.80
4518;DHT22;2271;49.464;11.070;2023-04-06T13:49:29;15.40;71.70
4518;DHT22;2271;49.464;11.070;2023-04-06T13:51:55;15.30;70.80
4518;DHT22;2271;49.464;11.070;2023-04-06T13:54:21;15.20;71.70
4518;DHT22;2271;49.464;11.070;2023-04-06T13:56:47;15.10;71.60
4518;DHT22;2271;49.464;11.070;2023-04-06T13:59:12;15.00;71.40
4518;DHT22;2271;49.464;11.070;2023-04-06T14:01:38;15.00;71.70
4518;DHT22;2271;49.464;11.070;2023-04-06T14:04:03;15.00;71.40
4518;DHT22;2271;49.464;11.070;2023-04-06T14:06:29;15.10;71.40
4518;DHT22;2271;49.464;11.070;2023-04-06T14:08:55;15.10;70.50
4518;DHT22;2271;49.464;11.070;2023-04-06T14:11:20;15.10;70.90
4518;DHT22;2271;49.464;11.070;2023-04-06T14:13:46;15.00;70.00
4518;DHT22;2271;49.464;11.070;2023-04-06T14:16:12;14.90;71.60
4518;DHT22;2271;49.464;11.070;2023-04-06T14:18:37;14.90;71.30
4518;DHT22;2271;49.464;11.070;2023-04-06T14:21:03;15.00;70.10
4518;DHT22;2271;49.464;11.070;2023-04-06T14:23:29;15.10;70.20
4518;DHT22;2271;49.464;11.070;2023-04-06T14:26:04;15.10;70.30
4518;DHT22;2271;49.464;11.070;2023-04-06T14:28:31;15.00;71.50
4518;DHT22;2271;49.464;11.070;2023-04-06T14:30:59;15.10;71.00
4518;DHT22;2271;49.464;11.070;2023-04-06T14:33:26;15.00;69.60
4518;DHT22;2271;49.464;11.070;2023-04-06T14:35:52;15.00;69.60
4518;DHT22;2271;49.464;11.070;2023-04-06T14:38:17;15.00;69.10
4518;DHT22;2271;49.464;11.070;2023-04-06T14:40:43;14.90;68.80
4518;DHT22;2271;49.464;11.070;2023-04-06T14:43:08;14.80;69.20
4518;DHT22;2271;49.464;11.070;2023-04-06T14:45:34;14.70;70.00
4518;DHT22;2271;49.464;11.070;2023-04-06T14:48:02;14.60;69.80
4518;DHT22;2271;49.464;11.070;2023-04-06T14:50:28;14.60;70.50
4518;DHT22;2271;49.464;11.070;2023-04-06T14:52:53;14.60;70.30
4518;DHT22;2271;49.464;11.070;2023-04-06T14:55:19;14.60;69.40
4518;DHT22;2271;49.464;11.070;2023-04-06T14:57:45;14.50;69.20
4518;DHT22;2271;49.464;11.070;2023-04-06T15:00:11;14.40;69.50
4518;DHT22;2271;49.464;11.070;2023-04-06T15:02:37;14.20;69.30
4518;DHT22;2271;49.464;11.070;2023-04-06T15:05:03;14.30;88.50
4518;DHT22;2271;49.464;11.070;2023-04-06T15:07:30;14.60;87.60
4518;DHT22;2271;49.464;11.070;2023-04-06T15:09:56;14.70;73.70
4518;DHT22;2271;49.464;11.070;2023-04-06T15:12:21;14.60;69.20
4518;DHT22;2271;49.464;11.070;2023-04-06T15:14:47;14.50;67.60
4518;DHT22;2271;49.464;11.070;2023-04-06T15:17:12;14.40;67.90
4518;DHT22;2271;49.464;11.070;2023-04-06T15:19:38;14.30;67.20
4518;DHT22;2271;49.464;11.070;2023-04-06T15:22:04;14.20;67.70
4518;DHT22;2271;49.464;11.070;2023-04-06T15:24:29;14.00;69.00
4518;DHT22;2271;49.464;11.070;2023-04-06T15:26:55;13.90;68.80
4518;DHT22;2271;49.464;11.070;2023-04-06T15:29:22;13.80;68.00
4518;DHT22;2271;49.464;11.070;2023-04-06T15:31:47;13.70;68.90
4518;DHT22;2271;49.464;11.070;2023-04-06T15:34:13;13.70;68.60
4518;DHT22;2271;49.464;11.070;2023-04-06T15:36:39;13.80;68.70
4518;DHT22;2271;49.464;11.070;2023-04-06T15:39:06;13.80;68.10
4518;DHT22;2271;49.464;11.070;2023-04-06T15:41:34;13.80;68.20
4518;DHT22;2271;49.464;11.070;2023-04-06T15:43:59;13.80;67.90
4518;DHT22;2271;49.464;11.070;2023-04-06T15:46:25;13.80;69.20
4518;DHT22;2271;49.464;11.070;2023-04-06T15:48:52;13.70;67.80
4518;DHT22;2271;49.464;11.070;2023-04-06T15:51:17;13.70;69.00
4518;DHT22;2271;49.464;11.070;2023-04-06T15:53:44;13.70;68.70
4518;DHT22;2271;49.464;11.070;2023-04-06T15:56:10;13.60;67.70
4518;DHT22;2271;49.464;11.070;2023-04-06T15:58:38;13.60;68.30
4518;DHT22;2271;49.464;11.070;2023-04-06T16:01:11;13.50;72.30
4518;DHT22;2271;49.464;11.070;2023-04-06T16:03:37;13.50;70.10
4518;DHT22;2271;49.464;11.070;2023-04-06T16:06:03;13.60;71.10